Time;durP1;ratioP1;P1;durP2;ratioP2;P2;SDS_P1;SDS_P2;PMS_P1;PMS_P2;Temp;Humidity;BMP_temperature;BMP_pressure;BME280_temperature;BME280_humidity;BME280_pressure;Samples;Min_cycle;Max_cycle;Signal;HPM_P1;HPM_P2
2021/09/22 04:00:09;;;;;;;59.13;13.07;;;8.70;99.70;;;;;;5049475;28;20209;-65
2021/09/22 04:02:35;;;;;;;59.67;12.87;;;8.70;99.70;;;;;;5049725;28;20197;-66
2021/09/22 04:05:02;;;;;;;58.97;12.97;;;8.70;99.70;;;;;;5049336;28;20951;-65
2021/09/22 04:07:29;;;;;;;59.90;12.70;;;8.80;99.70;;;;;;5049600;28;20510;-65
2021/09/22 04:09:56;;;;;;;60.53;13.70;;;8.70;99.70;;;;;;5048999;28;20467;-65
2021/09/22 04:12:22;;;;;;;61.10;13.80;;;8.60;99.70;;;;;;5049368;28;20451;-65
2021/09/22 04:14:49;;;;;;;61.53;13.17;;;8.60;99.70;;;;;;5049390;28;20855;-65
2021/09/22 04:17:17;;;;;;;64.70;14.07;;;8.70;99.70;;;;;;5049428;28;20451;-65
2021/09/22 04:19:44;;;;;;;61.83;12.70;;;8.60;99.70;;;;;;5048868;28;20483;-66
2021/09/22 04:22:10;;;;;;;59.03;12.70;;;8.80;99.70;;;;;;5049596;28;20451;-65
2021/09/22 04:24:37;;;;;;;61.30;14.00;;;8.80;99.70;;;;;;5049392;28;20447;-65
2021/09/22 04:27:04;;;;;;;64.53;15.50;;;8.80;99.70;;;;;;5049331;28;20443;-65
2021/09/22 04:29:31;;;;;;;62.43;13.90;;;8.80;99.70;;;;;;5048836;28;20467;-65
2021/09/22 04:31:58;;;;;;;62.47;13.53;;;9.20;99.70;;;;;;5049373;28;20451;-65
2021/09/22 04:34:26;;;;;;;57.33;12.77;;;9.30;99.70;;;;;;5045320;28;20450;-67
2021/09/22 04:36:54;;;;;;;64.30;13.93;;;9.30;99.70;;;;;;5044566;28;20828;-64
2021/09/22 04:41:51;;;;;;;59.20;13.70;;;8.70;99.70;;;;;;5104425;22;20571;-69
2021/09/22 04:44:18;;;;;;;61.87;14.83;;;8.60;99.70;;;;;;5053102;28;20494;-69
2021/09/22 04:46:44;;;;;;;59.50;12.97;;;8.50;99.70;;;;;;5033502;28;20440;-69
2021/09/22 04:49:11;;;;;;;58.30;13.37;;;8.30;99.70;;;;;;5032879;28;20448;-69
2021/09/22 04:51:39;;;;;;;57.20;13.33;;;8.30;99.70;;;;;;5047449;28;20535;-69
2021/09/22 04:54:06;;;;;;;59.23;12.60;;;8.30;99.70;;;;;;5052514;28;20531;-69
2021/09/22 04:56:33;;;;;;;62.33;13.70;;;8.20;99.70;;;;;;5052207;28;20885;-69
2021/09/22 04:59:00;;;;;;;58.90;13.50;;;8.20;99.70;;;;;;5054386;28;20440;-69
2021/09/22 05:01:26;;;;;;;67.27;14.50;;;8.40;99.70;;;;;;5056518;28;20487;-69
2021/09/22 05:03:53;;;;;;;58.60;13.77;;;8.50;99.70;;;;;;5056844;28;20448;-69
2021/09/22 05:06:20;;;;;;;60.47;13.90;;;8.40;99.70;;;;;;5056325;28;20517;-69
2021/09/22 05:08:48;;;;;;;64.47;14.10;;;8.30;99.70;;;;;;5055665;28;20453;-69
2021/09/22 05:11:15;;;;;;;58.80;13.83;;;8.30;99.70;;;;;;5056810;28;20470;-69
2021/09/22 05:13:41;;;;;;;59.00;13.50;;;8.30;99.70;;;;;;5055573;28;20444;-69
2021/09/22 05:16:08;;;;;;;59.87;14.13;;;8.20;99.70;;;;;;5051296;28;20453;-69
2021/09/22 05:18:35;;;;;;;59.73;14.10;;;8.20;99.70;;;;;;5045063;28;20450;-69
2021/09/22 05:21:01;;;;;;;60.20;13.63;;;8.20;99.70;;;;;;5049010;28;21012;-69
2021/09/22 05:23:28;;;;;;;62.27;14.30;;;8.20;99.70;;;;;;5047935;28;20458;-69
2021/09/22 05:25:56;;;;;;;60.13;14.23;;;8.20;99.70;;;;;;5045761;28;20684;-69
2021/09/22 05:28:23;;;;;;;60.77;14.60;;;8.40;99.70;;;;;;5054694;28;21101;-69
2021/09/22 05:30:49;;;;;;;59.27;13.40;;;8.30;99.70;;;;;;5054223;28;20467;-69
2021/09/22 05:33:16;;;;;;;57.70;13.00;;;8.30;99.70;;;;;;5055271;28;20505;-69
2021/09/22 05:35:43;;;;;;;58.37;13.63;;;8.90;99.70;;;;;;5054202;28;20454;-69
2021/09/22 05:38:09;;;;;;;63.60;13.90;;;9.00;99.70;;;;;;5055014;28;20503;-69
2021/09/22 05:40:36;;;;;;;60.17;13.83;;;8.60;99.70;;;;;;5055207;28;20491;-69
2021/09/22 05:43:04;;;;;;;60.20;12.97;;;8.50;99.70;;;;;;5054879;28;20463;-69
2021/09/22 05:45:31;;;;;;;62.70;13.70;;;8.50;99.70;;;;;;5055570;28;20449;-69
2021/09/22 05:47:58;;;;;;;60.67;12.90;;;8.50;99.70;;;;;;5055277;28;20454;-69
2021/09/22 05:50:26;;;;;;;62.37;14.20;;;8.50;99.70;;;;;;5055983;28;20455;-69
2021/09/22 05:52:53;;;;;;;72.20;14.10;;;8.60;99.70;;;;;;5055203;28;20447;-69
2021/09/22 05:55:19;;;;;;;63.73;13.47;;;8.80;99.70;;;;;;5056179;28;20447;-69
2021/09/22 05:57:46;;;;;;;60.97;12.47;;;8.80;99.70;;;;;;5055831;28;20960;-69
2021/09/22 06:00:15;;;;;;;60.63;13.07;;;8.90;99.70;;;;;;5056384;28;20491;-68
2021/09/22 06:02:42;;;;;;;60.20;13.57;;;9.40;99.70;;;;;;5057484;28;20447;-69
2021/09/22 06:05:10;;;;;;;63.90;13.97;;;9.60;99.70;;;;;;5058394;28;20827;-68
2021/09/22 06:07:36;;;;;;;63.00;14.73;;;9.40;99.70;;;;;;5058448;28;20497;-68
2021/09/22 06:10:04;;;;;;;58.80;12.80;;;9.20;99.70;;;;;;5057255;28;20459;-69
2021/09/22 06:12:31;;;;;;;62.80;14.53;;;9.70;99.70;;;;;;5058228;28;20447;-68
2021/09/22 06:14:57;;;;;;;63.43;14.97;;;10.10;99.70;;;;;;5058817;28;21001;-68
2021/09/22 06:17:25;;;;;;;63.87;13.63;;;10.10;99.70;;;;;;5058996;28;20459;-69
2021/09/22 06:19:52;;;;;;;59.60;12.37;;;10.00;99.70;;;;;;5057925;28;20713;-69
2021/09/22 06:22:24;;;;;;;63.90;14.73;;;10.80;99.70;;;;;;5058461;28;20466;-69
2021/09/22 06:24:51;;;;;;;62.40;14.00;;;10.50;99.70;;;;;;5058419;28;20443;-70
2021/09/22 06:27:18;;;;;;;62.17;13.67;;;10.20;99.70;;;;;;5058241;28;20474;-69
2021/09/22 06:29:45;;;;;;;64.00;15.10;;;10.10;99.70;;;;;;5054494;28;20938;-69
2021/09/22 06:32:11;;;;;;;60.83;14.07;;;10.50;99.70;;;;;;5054982;28;20454;-69
2021/09/22 06:34:40;;;;;;;69.13;16.93;;;10.70;99.70;;;;;;5056900;28;20444;-69
2021/09/22 06:37:07;;;;;;;68.20;16.50;;;10.30;99.70;;;;;;5053530;28;20475;-69
2021/09/22 06:39:33;;;;;;;63.70;16.30;;;10.40;99.70;;;;;;5051686;28;20865;-69
2021/09/22 06:42:00;;;;;;;64.70;15.57;;;10.40;99.70;;;;;;5054355;28;20475;-69
2021/09/22 06:44:27;;;;;;;62.50;15.03;;;10.30;99.70;;;;;;5045937;28;20467;-69
2021/09/22 06:46:54;;;;;;;59.70;13.60;;;10.50;99.70;;;;;;5055553;28;20444;-69
2021/09/22 06:49:20;;;;;;;62.90;15.40;;;10.90;99.70;;;;;;5056926;28;20454;-69
2021/09/22 06:51:48;;;;;;;61.30;15.37;;;11.10;99.70;;;;;;5056264;28;20494;-69
2021/09/22 06:54:15;;;;;;;61.53;15.47;;;11.40;99.70;;;;;;5057072;28;20560;-69
2021/09/22 06:56:42;;;;;;;60.93;14.93;;;11.20;99.70;;;;;;5056495;28;20940;-69
2021/09/22 06:59:08;;;;;;;62.50;15.20;;;11.10;99.70;;;;;;5055384;28;20451;-69
2021/09/22 07:01:35;;;;;;;64.57;16.37;;;11.40;99.70;;;;;;5056230;28;20495;-69
2021/09/22 07:04:02;;;;;;;64.90;16.57;;;11.20;99.70;;;;;;5056969;28;20432;-69
2021/09/22 07:06:28;;;;;;;61.07;15.97;;;11.10;99.70;;;;;;5056221;28;20502;-69
2021/09/22 07:08:56;;;;;;;63.07;16.80;;;10.90;99.70;;;;;;5056043;28;20447;-69
2021/09/22 07:11:23;;;;;;;64.87;16.83;;;10.70;99.70;;;;;;5055162;28;20493;-69
2021/09/22 07:13:50;;;;;;;61.40;17.00;;;10.80;99.70;;;;;;5054285;28;20448;-68
2021/09/22 07:16:17;;;;;;;63.17;17.50;;;11.30;99.70;;;;;;5053598;28;20455;-69
2021/09/22 07:18:44;;;;;;;68.57;17.83;;;11.40;99.70;;;;;;5052974;28;20483;-69
2021/09/22 07:21:11;;;;;;;59.20;15.67;;;11.30;99.70;;;;;;5052276;28;20491;-69
2021/09/22 07:23:38;;;;;;;61.20;16.67;;;11.30;99.70;;;;;;5053163;28;20482;-69
2021/09/22 07:26:07;;;;;;;65.03;18.47;;;11.50;99.70;;;;;;5052894;28;20451;-69
2021/09/22 07:28:34;;;;;;;63.43;17.17;;;11.40;99.70;;;;;;5052721;28;20479;-69
2021/09/22 07:31:01;;;;;;;66.30;17.67;;;11.50;99.70;;;;;;5053123;28;20464;-69
2021/09/22 07:33:28;;;;;;;67.47;18.20;;;11.60;99.70;;;;;;5053814;28;20455;-69
2021/09/22 07:35:55;;;;;;;64.90;18.93;;;11.40;99.70;;;;;;5054582;28;20448;-69
2021/09/22 07:38:22;;;;;;;63.47;16.63;;;11.80;99.70;;;;;;5053610;28;20458;-69
2021/09/22 07:40:50;;;;;;;65.50;17.87;;;12.10;99.70;;;;;;5054845;28;20483;-69
2021/09/22 07:43:18;;;;;;;66.27;17.90;;;12.00;99.70;;;;;;5055152;28;20935;-69
2021/09/22 07:45:44;;;;;;;67.70;19.20;;;11.90;99.70;;;;;;5054815;28;20829;-69
2021/09/22 07:48:11;;;;;;;64.00;18.07;;;11.80;99.70;;;;;;5054892;28;20509;-69
2021/09/22 07:50:38;;;;;;;67.60;19.67;;;11.80;99.70;;;;;;5054066;28;20559;-69
2021/09/22 07:53:05;;;;;;;65.37;18.13;;;12.30;99.70;;;;;;5055360;28;20450;-69
2021/09/22 07:55:32;;;;;;;66.37;19.07;;;12.20;99.70;;;;;;5054024;28;20447;-69
2021/09/22 07:57:58;;;;;;;63.80;17.73;;;12.00;99.70;;;;;;5054754;28;20529;-69
2021/09/22 08:00:27;;;;;;;63.67;18.17;;;12.00;99.70;;;;;;5054390;28;20463;-69
2021/09/22 08:02:54;;;;;;;62.03;17.80;;;12.20;99.70;;;;;;5055085;28;20477;-69
2021/09/22 08:05:21;;;;;;;63.80;17.10;;;12.60;99.70;;;;;;5053432;28;20966;-69
2021/09/22 08:07:48;;;;;;;65.93;17.93;;;12.90;99.70;;;;;;5054583;28;20502;-69
2021/09/22 08:10:16;;;;;;;61.70;16.60;;;13.00;99.70;;;;;;5054027;28;20550;-69
2021/09/22 08:12:44;;;;;;;67.20;17.60;;;13.10;99.70;;;;;;5053456;28;20907;-69
2021/09/22 08:15:12;;;;;;;70.37;18.30;;;13.10;99.70;;;;;;5054110;28;20448;-69
2021/09/22 08:17:41;;;;;;;66.67;17.30;;;13.00;99.70;;;;;;5053979;28;20501;-69
2021/09/22 08:20:10;;;;;;;64.27;18.33;;;12.70;99.70;;;;;;5053963;28;20840;-69
2021/09/22 08:22:37;;;;;;;65.70;17.70;;;12.70;99.70;;;;;;5053263;28;20480;-69
2021/09/22 08:25:05;;;;;;;65.90;18.43;;;13.00;99.70;;;;;;5053990;28;20447;-69
2021/09/22 08:27:32;;;;;;;65.00;17.50;;;13.10;99.70;;;;;;5053993;28;20448;-69
2021/09/22 08:29:59;;;;;;;67.33;18.43;;;13.10;99.70;;;;;;5054190;28;20471;-69
2021/09/22 08:32:25;;;;;;;69.57;18.40;;;13.30;99.70;;;;;;5053293;28;20452;-69
2021/09/22 08:34:53;;;;;;;68.73;18.10;;;13.30;99.70;;;;;;5053542;28;20440;-69
2021/09/22 08:37:20;;;;;;;67.70;19.47;;;13.40;99.70;;;;;;5053243;28;20830;-69
2021/09/22 08:39:47;;;;;;;66.20;20.20;;;13.50;99.70;;;;;;5049973;28;20986;-69
2021/09/22 08:42:13;;;;;;;68.37;18.33;;;13.70;99.70;;;;;;5053309;28;21057;-69
2021/09/22 08:44:42;;;;;;;67.17;20.13;;;13.80;99.70;;;;;;5050210;28;20447;-69
2021/09/22 08:47:08;;;;;;;65.03;18.73;;;13.90;99.70;;;;;;5036224;28;20444;-69
2021/09/22 08:49:36;;;;;;;68.50;18.80;;;14.10;99.70;;;;;;5032853;28;20449;-69
2021/09/22 08:52:05;;;;;;;65.63;17.80;;;14.10;99.70;;;;;;5033591;28;20436;-69
2021/09/22 08:54:31;;;;;;;64.87;18.20;;;14.20;99.70;;;;;;5033020;28;20790;-69
2021/09/22 08:57:00;;;;;;;65.57;18.13;;;14.20;99.70;;;;;;5033527;28;20884;-69
2021/09/22 08:59:27;;;;;;;67.43;17.80;;;14.10;99.70;;;;;;5032778;28;20510;-69
2021/09/22 09:02:08;;;;;;;62.37;17.03;;;14.10;99.70;;;;;;5033058;28;20507;-69
2021/09/22 09:04:36;;;;;;;63.70;18.40;;;14.20;99.70;;;;;;5033229;28;20950;-69
2021/09/22 09:07:05;;;;;;;63.60;18.63;;;14.20;99.70;;;;;;5033470;28;20447;-69
2021/09/22 09:09:33;;;;;;;66.13;18.90;;;14.30;99.70;;;;;;5032260;28;20526;-69
2021/09/22 09:12:01;;;;;;;61.43;16.83;;;14.40;99.70;;;;;;5033047;28;20445;-69
2021/09/22 09:14:33;;;;;;;59.03;15.97;;;14.50;99.70;;;;;;5032818;28;20452;-69
2021/09/22 09:17:01;;;;;;;61.40;17.53;;;14.60;99.70;;;;;;5032266;28;20441;-69
2021/09/22 09:19:28;;;;;;;61.47;16.80;;;14.70;99.70;;;;;;5031911;28;20452;-69
2021/09/22 09:22:00;;;;;;;60.30;14.87;;;15.00;99.70;;;;;;5032175;28;20484;-69
2021/09/22 09:24:35;;;;;;;62.97;17.53;;;15.50;99.70;;;;;;5032202;28;20471;-69
2021/09/22 09:27:03;;;;;;;60.10;17.00;;;16.10;99.70;;;;;;5031560;28;20444;-69
2021/09/22 09:29:30;;;;;;;58.00;15.20;;;16.70;99.70;;;;;;5031523;28;20884;-70
2021/09/22 09:32:14;;;;;;;57.50;14.80;;;16.90;99.70;;;;;;5031469;28;20448;-69
2021/09/22 09:34:57;;;;;;;54.33;12.83;;;17.00;99.70;;;;;;5030754;28;20532;-70
2021/09/22 09:37:29;;;;;;;55.00;13.00;;;17.20;99.70;;;;;;5030703;28;20978;-70
2021/09/22 09:39:58;;;;;;;53.83;13.17;;;17.40;99.70;;;;;;5031143;28;20488;-69
2021/09/22 09:42:28;;;;;;;52.20;12.80;;;17.50;99.70;;;;;;5030994;28;20484;-69
2021/09/22 09:44:57;;;;;;;52.77;12.23;;;17.80;99.70;;;;;;5032733;28;20452;-69
2021/09/22 09:47:24;;;;;;;54.20;12.40;;;17.80;99.70;;;;;;5034655;28;20457;-69
2021/09/22 09:49:50;;;;;;;51.73;12.43;;;17.70;99.70;;;;;;5034240;28;20518;-70
2021/09/22 09:52:17;;;;;;;51.10;11.73;;;17.50;99.70;;;;;;5034331;28;20817;-69
2021/09/22 09:54:49;;;;;;;52.40;12.23;;;17.60;99.70;;;;;;5034320;28;20451;-69
2021/09/22 09:57:19;;;;;;;53.17;11.47;;;17.30;99.70;;;;;;5034090;28;20455;-69
2021/09/22 09:59:48;;;;;;;52.40;12.00;;;17.20;99.70;;;;;;5034263;28;20449;-69
2021/09/22 10:02:24;;;;;;;52.17;13.17;;;17.10;99.70;;;;;;5035278;28;20484;-69
2021/09/22 10:04:51;;;;;;;52.60;12.70;;;17.10;99.70;;;;;;5034154;28;21015;-69
2021/09/22 10:07:18;;;;;;;58.00;14.17;;;16.70;99.70;;;;;;5034080;28;20448;-69
2021/09/22 10:09:45;;;;;;;66.57;12.80;;;16.50;99.70;;;;;;5033640;28;21065;-69
2021/09/22 10:12:14;;;;;;;55.50;12.13;;;16.30;99.70;;;;;;5033474;28;20440;-69
2021/09/22 10:14:44;;;;;;;53.47;11.50;;;16.30;99.70;;;;;;5039163;28;20459;-69
2021/09/22 10:17:11;;;;;;;51.00;11.37;;;16.30;99.70;;;;;;5032282;28;20448;-69
2021/09/22 10:19:39;;;;;;;53.00;12.03;;;16.20;99.70;;;;;;5034040;28;20463;-70
2021/09/22 10:22:06;;;;;;;51.50;11.10;;;16.10;99.70;;;;;;5034473;28;20484;-70
2021/09/22 10:24:33;;;;;;;52.17;11.70;;;16.10;99.70;;;;;;5034601;28;20456;-69
2021/09/22 10:27:00;;;;;;;54.30;11.70;;;16.10;99.70;;;;;;5035216;28;20441;-69
2021/09/22 10:29:35;;;;;;;52.03;10.97;;;16.30;99.70;;;;;;5033847;28;20452;-69
2021/09/22 10:32:05;;;;;;;50.87;11.10;;;16.20;99.70;;;;;;5034720;28;20441;-69
2021/09/22 10:34:35;;;;;;;49.77;10.50;;;16.20;99.70;;;;;;5034111;28;20453;-69
2021/09/22 10:37:04;;;;;;;51.73;11.03;;;16.30;99.70;;;;;;5034068;28;20445;-69
2021/09/22 10:39:42;;;;;;;52.00;10.87;;;16.30;99.70;;;;;;5034085;28;20455;-69
2021/09/22 10:42:24;;;;;;;49.53;10.70;;;16.20;99.70;;;;;;5034227;28;20777;-69
2021/09/22 10:44:50;;;;;;;51.07;11.43;;;15.90;99.70;;;;;;5069682;22;20500;-64
2021/09/22 10:47:27;;;;;;;50.40;11.40;;;15.90;99.70;;;;;;5051374;28;20453;-64
2021/09/22 10:49:54;;;;;;;51.70;10.90;;;16.10;99.70;;;;;;5050758;28;20839;-66
2021/09/22 10:52:31;;;;;;;47.97;10.57;;;16.00;99.70;;;;;;5051786;28;20440;-65
2021/09/22 10:55:13;;;;;;;47.90;9.80;;;16.00;99.70;;;;;;5051061;28;20890;-64
2021/09/22 10:57:41;;;;;;;48.53;9.67;;;16.00;99.70;;;;;;5051678;28;20447;-66
2021/09/22 11:00:09;;;;;;;50.53;10.80;;;16.00;99.70;;;;;;5050758;28;20452;-64
2021/09/22 11:02:44;;;;;;;48.87;9.77;;;16.00;99.70;;;;;;5051391;28;20487;-67
2021/09/22 11:05:13;;;;;;;49.40;11.00;;;16.10;99.70;;;;;;5050790;28;20463;-64
2021/09/22 11:07:59;;;;;;;49.53;11.80;;;16.20;99.70;;;;;;5051629;28;20447;-64
2021/09/22 11:10:42;;;;;;;50.20;8.93;;;16.20;99.70;;;;;;5050907;28;20501;-66
2021/09/22 11:13:38;;;;;;;52.50;11.33;;;16.30;99.70;;;;;;5051379;28;20525;-68
2021/09/22 11:16:18;;;;;;;48.83;9.70;;;16.20;99.70;;;;;;5050863;28;20454;-66
2021/09/22 11:18:52;;;;;;;48.03;10.00;;;16.30;99.70;;;;;;5050741;28;20440;-69
2021/09/22 11:21:21;;;;;;;46.70;8.13;;;16.40;99.70;;;;;;5051014;28;20515;-67
2021/09/22 11:23:48;;;;;;;46.20;8.40;;;16.30;99.70;;;;;;5050813;28;20468;-69
2021/09/22 11:26:15;;;;;;;47.10;8.93;;;16.30;99.70;;;;;;5050759;28;20439;-68
2021/09/22 11:28:51;;;;;;;45.90;8.37;;;16.30;99.70;;;;;;5050868;28;20447;-65
2021/09/22 11:31:18;;;;;;;46.40;8.00;;;16.30;99.70;;;;;;5050821;28;20447;-66
2021/09/22 11:33:47;;;;;;;44.57;8.33;;;16.30;99.70;;;;;;5050611;28;20902;-64
2021/09/22 11:36:14;;;;;;;47.03;9.57;;;16.30;99.70;;;;;;5050524;28;20447;-68
2021/09/22 11:38:41;;;;;;;48.53;7.90;;;16.60;99.70;;;;;;5050342;28;20446;-66
2021/09/22 11:41:08;;;;;;;47.83;8.50;;;16.60;99.70;;;;;;5050814;28;20444;-68
2021/09/22 11:43:34;;;;;;;46.53;8.73;;;16.60;99.70;;;;;;5050302;28;20479;-67
2021/09/22 11:46:03;;;;;;;47.20;9.10;;;16.60;99.70;;;;;;5050226;28;20448;-68
2021/09/22 11:48:31;;;;;;;47.33;7.47;;;16.70;99.70;;;;;;5050192;28;20443;-68
2021/09/22 11:51:01;;;;;;;41.60;5.37;;;16.70;99.70;;;;;;5050539;28;20815;-67
2021/09/22 11:53:32;;;;;;;41.03;5.53;;;16.80;99.70;;;;;;5050634;28;20460;-69
2021/09/22 11:56:01;;;;;;;40.90;5.83;;;16.80;99.70;;;;;;5050668;28;20870;-68
2021/09/22 11:58:29;;;;;;;41.60;6.07;;;16.90;99.70;;;;;;5050098;28;20444;-70
2021/09/22 12:00:59;;;;;;;42.30;6.43;;;16.90;99.70;;;;;;5050291;28;20447;-67
2021/09/22 12:03:28;;;;;;;41.67;5.80;;;17.00;99.70;;;;;;5050108;28;20498;-67
2021/09/22 12:06:08;;;;;;;40.97;6.13;;;17.00;99.70;;;;;;5050556;28;20458;-67
2021/09/22 12:08:36;;;;;;;43.30;6.40;;;17.00;99.70;;;;;;5049543;28;20443;-67
2021/09/22 12:11:04;;;;;;;45.00;5.60;;;16.90;99.70;;;;;;5050354;28;20451;-67
2021/09/22 12:13:31;;;;;;;41.70;6.20;;;16.90;99.70;;;;;;5046987;28;20459;-70
2021/09/22 12:15:59;;;;;;;40.97;5.90;;;16.90;99.70;;;;;;5049057;28;20448;-69
2021/09/22 12:18:26;;;;;;;43.30;5.60;;;17.00;99.70;;;;;;5050084;28;20448;-68
2021/09/22 12:20:55;;;;;;;40.00;5.27;;;17.00;99.70;;;;;;5049841;28;20447;-66
2021/09/22 12:23:29;;;;;;;41.87;5.40;;;16.90;99.70;;;;;;5050154;28;20483;-67
2021/09/22 12:26:10;;;;;;;41.63;5.87;;;16.90;99.70;;;;;;5049844;28;20959;-66
2021/09/22 12:28:37;;;;;;;41.30;6.33;;;16.80;99.70;;;;;;5049927;28;20454;-68
2021/09/22 12:31:18;;;;;;;41.50;5.77;;;16.80;99.70;;;;;;5049734;28;20471;-66
2021/09/22 12:33:44;;;;;;;42.10;6.43;;;16.80;99.70;;;;;;5049862;28;20459;-69
2021/09/22 12:36:13;;;;;;;40.40;5.90;;;17.10;99.70;;;;;;5049226;28;20443;-66
2021/09/22 12:38:49;;;;;;;41.97;5.53;;;17.10;99.70;;;;;;5049829;28;20822;-66
2021/09/22 12:41:18;;;;;;;41.97;6.50;;;17.10;99.70;;;;;;5049854;28;20444;-66
2021/09/22 12:43:47;;;;;;;43.53;5.50;;;17.20;99.70;;;;;;5050054;28;20488;-67
2021/09/22 12:46:16;;;;;;;41.43;7.50;;;17.30;99.70;;;;;;5049841;28;20459;-66
2021/09/22 12:48:43;;;;;;;41.97;5.67;;;17.30;99.70;;;;;;5050209;28;20486;-66
2021/09/22 12:51:19;;;;;;;41.90;7.40;;;17.30;99.70;;;;;;5049655;28;20451;-65
2021/09/22 12:53:49;;;;;;;40.97;6.13;;;17.40;99.70;;;;;;5049364;28;20451;-66
2021/09/22 12:56:19;;;;;;;43.87;5.50;;;17.30;99.70;;;;;;5048721;28;20451;-66
2021/09/22 12:58:48;;;;;;;40.60;5.30;;;17.30;99.70;;;;;;5048671;28;20455;-66
2021/09/22 13:01:16;;;;;;;41.97;5.63;;;17.30;99.70;;;;;;5049679;28;20439;-65
2021/09/22 13:03:44;;;;;;;42.80;6.20;;;17.20;99.70;;;;;;5049455;28;20487;-67
2021/09/22 13:06:13;;;;;;;40.67;5.50;;;17.10;99.70;;;;;;5049739;28;21000;-66
2021/09/22 13:08:52;;;;;;;42.37;6.07;;;17.10;99.70;;;;;;5049297;28;20447;-69
2021/09/22 13:11:21;;;;;;;42.43;6.20;;;17.10;99.70;;;;;;5049769;28;20841;-67
2021/09/22 13:13:51;;;;;;;42.47;6.23;;;17.20;99.70;;;;;;5049326;28;20468;-67
2021/09/22 13:16:33;;;;;;;41.10;5.53;;;17.10;99.70;;;;;;5049794;28;20444;-68
2021/09/22 13:19:04;;;;;;;43.27;5.60;;;17.10;99.70;;;;;;5049817;28;20874;-66
2021/09/22 13:21:31;;;;;;;43.10;6.60;;;17.30;99.70;;;;;;5051273;28;20869;-67
2021/09/22 13:24:01;;;;;;;44.57;6.20;;;17.40;99.70;;;;;;5053077;28;20510;-69
2021/09/22 13:26:29;;;;;;;41.77;6.07;;;17.20;99.70;;;;;;5053430;28;20833;-68
2021/09/22 13:29:01;;;;;;;41.80;5.40;;;17.20;99.70;;;;;;5052985;28;20443;-67
2021/09/22 13:31:28;;;;;;;42.23;5.70;;;17.20;99.70;;;;;;5052999;28;20896;-67
2021/09/22 13:33:54;;;;;;;41.17;5.53;;;17.20;99.70;;;;;;5051456;28;20855;-68
2021/09/22 13:36:24;;;;;;;45.03;6.90;;;17.30;99.70;;;;;;5052810;28;20695;-65
2021/09/22 13:38:52;;;;;;;42.23;6.00;;;17.30;99.70;;;;;;5052957;28;20447;-67
2021/09/22 13:41:20;;;;;;;40.93;5.80;;;17.20;99.70;;;;;;5053158;28;20454;-66
2021/09/22 13:43:47;;;;;;;41.90;5.87;;;17.20;99.70;;;;;;5052913;28;20483;-66
2021/09/22 13:46:15;;;;;;;41.50;5.67;;;17.20;99.70;;;;;;5052071;28;20829;-67
2021/09/22 13:48:42;;;;;;;41.63;6.57;;;17.40;99.70;;;;;;5052681;28;20559;-66
2021/09/22 13:51:09;;;;;;;41.67;5.93;;;17.40;99.70;;;;;;5052151;28;20451;-66
2021/09/22 13:53:36;;;;;;;41.30;6.63;;;17.40;99.70;;;;;;5052134;28;20837;-67
2021/09/22 13:56:03;;;;;;;40.93;5.63;;;17.40;99.70;;;;;;5048814;28;20478;-66
2021/09/22 13:58:31;;;;;;;40.90;5.43;;;17.30;99.70;;;;;;5052272;28;20457;-66
2021/09/22 14:00:59;;;;;;;44.93;7.00;;;17.20;99.70;;;;;;5050929;28;20819;-66
2021/09/22 14:03:27;;;;;;;43.50;8.17;;;17.30;99.70;;;;;;5051821;28;20986;-67
2021/09/22 14:05:54;;;;;;;43.00;8.30;;;17.30;99.70;;;;;;5051870;28;20473;-66
2021/09/22 14:08:21;;;;;;;41.47;6.60;;;17.30;99.70;;;;;;5052558;28;20444;-67
2021/09/22 14:10:48;;;;;;;44.50;6.83;;;17.30;99.70;;;;;;5052300;28;20450;-66
2021/09/22 14:13:16;;;;;;;43.20;9.13;;;17.30;99.70;;;;;;5052020;28;20836;-65
2021/09/22 14:15:47;;;;;;;41.47;6.57;;;17.30;99.70;;;;;;5044800;28;20435;-65
2021/09/22 14:18:16;;;;;;;42.53;6.23;;;17.30;99.70;;;;;;5044446;28;20739;-67
2021/09/22 14:20:45;;;;;;;44.30;8.57;;;17.30;99.70;;;;;;5044783;28;20466;-68
2021/09/22 14:23:13;;;;;;;41.80;6.90;;;17.30;99.70;;;;;;5042310;28;21808;-68
2021/09/22 14:25:41;;;;;;;41.60;6.50;;;17.20;99.70;;;;;;5040859;28;20507;-64
2021/09/22 14:28:08;;;;;;;41.60;6.80;;;17.20;99.70;;;;;;5041320;28;21520;-65
2021/09/22 14:30:35;;;;;;;41.60;7.20;;;17.20;99.70;;;;;;5043040;28;20451;-67
2021/09/22 14:33:06;;;;;;;41.33;7.10;;;17.10;99.70;;;;;;5042759;28;20444;-65
2021/09/22 14:35:33;;;;;;;42.90;5.93;;;17.20;99.70;;;;;;5043986;28;20560;-67
2021/09/22 14:38:00;;;;;;;40.20;5.10;;;17.40;99.70;;;;;;5038820;28;20531;-61
2021/09/22 14:40:29;;;;;;;40.30;5.13;;;17.40;99.70;;;;;;5038658;28;20451;-66
2021/09/22 14:42:56;;;;;;;40.93;5.67;;;17.40;99.70;;;;;;5039501;28;20476;-65
2021/09/22 14:45:24;;;;;;;39.63;5.40;;;17.30;99.70;;;;;;5045794;28;20463;-66
2021/09/22 14:47:51;;;;;;;40.50;5.53;;;17.40;99.70;;;;;;5043667;28;20966;-67
2021/09/22 14:50:21;;;;;;;41.70;6.30;;;17.30;99.70;;;;;;5040800;28;20447;-65
2021/09/22 14:52:49;;;;;;;41.40;6.03;;;17.20;99.70;;;;;;5043036;28;20460;-66
2021/09/22 14:55:16;;;;;;;42.83;5.70;;;17.20;99.70;;;;;;5041905;28;20462;-65
2021/09/22 14:57:44;;;;;;;40.80;5.87;;;17.30;99.70;;;;;;5047650;28;20444;-66
2021/09/22 15:00:13;;;;;;;41.37;6.13;;;17.30;99.70;;;;;;5048522;28;20479;-66
2021/09/22 15:02:46;;;;;;;39.83;5.47;;;17.30;99.70;;;;;;5050274;28;20444;-67
2021/09/22 15:05:13;;;;;;;42.87;6.00;;;17.30;99.70;;;;;;5048910;28;20460;-65
2021/09/22 15:07:41;;;;;;;40.57;6.60;;;17.40;99.70;;;;;;5050404;28;20448;-66
2021/09/22 15:10:09;;;;;;;41.47;6.00;;;17.50;99.70;;;;;;5049847;28;20807;-65
2021/09/22 15:12:36;;;;;;;41.30;5.30;;;17.40;99.70;;;;;;5046449;28;20451;-69
2021/09/22 15:15:03;;;;;;;41.47;5.73;;;17.40;99.70;;;;;;5050312;28;20826;-65
2021/09/22 15:17:29;;;;;;;40.47;5.60;;;17.30;99.70;;;;;;5049938;28;21001;-67
2021/09/22 15:19:56;;;;;;;40.90;5.20;;;17.30;99.70;;;;;;5049857;28;20452;-65
2021/09/22 15:22:23;;;;;;;40.57;6.40;;;17.30;99.70;;;;;;5049522;28;20452;-65
2021/09/22 15:24:51;;;;;;;41.77;6.50;;;17.40;99.70;;;;;;5049952;28;20490;-67
2021/09/22 15:27:18;;;;;;;40.47;5.73;;;17.40;99.70;;;;;;5050529;28;20444;-65
2021/09/22 15:29:54;;;;;;;40.90;5.77;;;17.30;99.70;;;;;;5050240;28;20835;-65
2021/09/22 15:32:21;;;;;;;40.03;5.23;;;17.30;99.70;;;;;;5050705;28;20844;-66
2021/09/22 15:34:48;;;;;;;42.60;6.63;;;17.20;99.70;;;;;;5049776;28;20460;-67
2021/09/22 15:37:15;;;;;;;40.10;6.60;;;17.10;99.70;;;;;;5050527;28;20483;-65
2021/09/22 15:39:42;;;;;;;40.37;5.90;;;17.10;99.70;;;;;;5050366;28;20459;-66
2021/09/22 15:42:10;;;;;;;42.60;7.83;;;17.10;99.70;;;;;;5029789;28;20449;-68
2021/09/22 15:44:37;;;;;;;42.00;7.27;;;17.10;99.70;;;;;;5031388;28;20495;-67
2021/09/22 15:47:05;;;;;;;41.33;6.67;;;17.10;99.70;;;;;;5050175;28;20451;-69
2021/09/22 15:49:32;;;;;;;41.70;7.17;;;17.20;99.70;;;;;;5049626;28;20451;-67
2021/09/22 15:51:59;;;;;;;42.47;6.77;;;17.10;99.70;;;;;;5048209;28;20448;-69
2021/09/22 15:54:26;;;;;;;42.80;7.57;;;17.00;99.70;;;;;;5045914;28;20474;-66
2021/09/22 15:56:52;;;;;;;41.03;6.10;;;17.00;99.70;;;;;;5050234;28;21104;-69
2021/09/22 15:59:21;;;;;;;43.50;6.40;;;16.90;99.70;;;;;;5048349;28;20448;-67
2021/09/22 16:01:48;;;;;;;42.70;6.20;;;17.00;99.70;;;;;;5049952;28;20448;-68
2021/09/22 16:04:15;;;;;;;40.87;6.50;;;17.00;99.70;;;;;;5049031;28;20491;-71
2021/09/22 16:06:42;;;;;;;43.23;7.33;;;17.00;99.70;;;;;;5049682;28;20447;-68
2021/09/22 16:09:09;;;;;;;44.03;8.50;;;16.90;99.70;;;;;;5049619;28;20448;-70
2021/09/22 16:11:36;;;;;;;42.30;6.53;;;16.80;99.70;;;;;;5048608;28;20448;-68
2021/09/22 16:14:03;;;;;;;43.00;7.23;;;16.80;99.70;;;;;;5048316;28;20467;-67
2021/09/22 16:16:32;;;;;;;48.00;7.63;;;16.70;99.70;;;;;;5048901;28;20444;-68
2021/09/22 16:18:59;;;;;;;46.27;7.83;;;16.60;99.70;;;;;;5050013;28;20633;-67
2021/09/22 16:21:25;;;;;;;43.80;8.33;;;16.50;99.70;;;;;;5049208;28;20490;-68
2021/09/22 16:23:52;;;;;;;42.40;6.90;;;16.50;99.70;;;;;;5048617;28;21059;-69
2021/09/22 16:26:19;;;;;;;41.70;6.80;;;16.50;99.70;;;;;;5049718;28;20443;-70
2021/09/22 16:28:46;;;;;;;44.07;7.30;;;16.50;99.70;;;;;;5048655;28;20903;-68
2021/09/22 16:31:13;;;;;;;43.70;6.67;;;16.40;99.70;;;;;;5048721;28;20456;-68
2021/09/22 16:33:41;;;;;;;45.90;7.20;;;16.30;99.70;;;;;;5048376;28;20513;-70
2021/09/22 16:36:08;;;;;;;43.73;8.67;;;16.20;99.70;;;;;;5049198;28;20859;-68
2021/09/22 16:38:34;;;;;;;47.83;6.50;;;16.00;99.70;;;;;;5049310;28;20939;-68
2021/09/22 16:41:02;;;;;;;41.70;6.73;;;15.90;99.70;;;;;;5049283;28;20448;-67